createdAt,value
2022-10-14T00:01:13.192Z,8.40
2022-10-14T00:03:42.102Z,8.40
2022-10-14T00:06:13.345Z,9.40
2022-10-14T00:08:42.319Z,9.40
2022-10-14T00:11:13.933Z,9.93
2022-10-14T00:13:42.094Z,9.30
2022-10-14T00:16:18.061Z,9.20
2022-10-14T00:18:46.169Z,8.27
2022-10-14T00:21:14.464Z,8.03
2022-10-14T00:23:42.714Z,8.17
2022-10-14T00:26:18.512Z,8.07
2022-10-14T00:28:46.785Z,7.70
2022-10-14T00:31:15.074Z,8.83
2022-10-14T00:33:43.208Z,8.93
2022-10-14T00:36:13.791Z,9.47
2022-10-14T00:38:42.099Z,8.70
2022-10-14T00:41:12.790Z,8.30
2022-10-14T00:44:04.135Z,7.57
2022-10-14T00:46:33.941Z,7.37
2022-10-14T00:49:06.920Z,7.40
2022-10-14T00:51:36.228Z,7.77
2022-10-14T00:54:05.274Z,7.77
2022-10-14T00:56:33.561Z,7.50
2022-10-14T00:59:05.409Z,7.97
2022-10-14T01:01:33.977Z,7.73
2022-10-14T01:04:02.114Z,8.17
2022-10-14T01:06:41.305Z,9.50
2022-10-14T01:09:18.600Z,8.03
2022-10-14T01:12:16.341Z,9.33
2022-10-14T01:14:54.806Z,9.27
2022-10-14T01:17:35.253Z,8.97
2022-10-14T01:20:23.272Z,8.37
2022-10-14T01:23:06.337Z,7.33
2022-10-14T01:25:38.642Z,7.43
2022-10-14T01:28:21.867Z,7.93
2022-10-14T01:30:56.601Z,7.40
2022-10-14T01:33:27.716Z,6.87
2022-10-14T01:36:03.851Z,7.53
2022-10-14T01:38:36.319Z,7.67
2022-10-14T01:41:08.870Z,7.73
2022-10-14T01:43:38.982Z,7.43
2022-10-14T01:46:11.354Z,8.00
2022-10-14T01:48:45.159Z,8.83
2022-10-14T01:51:16.655Z,8.50
2022-10-14T01:53:50.477Z,8.80
2022-10-14T01:56:19.017Z,9.90
2022-10-14T01:58:47.884Z,10.63
2022-10-14T02:01:17.591Z,9.83
2022-10-14T02:03:48.622Z,10.57
2022-10-14T02:06:22.381Z,10.27
2022-10-14T02:09:03.382Z,10.37
2022-10-14T02:11:37.182Z,9.63
2022-10-14T02:14:13.367Z,10.47
2022-10-14T02:16:50.626Z,9.83
2022-10-14T02:19:27.219Z,10.10
2022-10-14T02:22:01.121Z,9.73
2022-10-14T02:24:33.490Z,9.60
2022-10-14T02:27:06.150Z,9.23
2022-10-14T02:29:36.151Z,8.50
2022-10-14T02:32:07.372Z,6.83
2022-10-14T02:34:37.280Z,7.60
2022-10-14T02:37:07.479Z,7.33
2022-10-14T02:39:40.043Z,7.13
2022-10-14T02:42:08.508Z,6.87
2022-10-14T02:44:36.596Z,7.17
2022-10-14T02:47:06.210Z,7.53
2022-10-14T02:49:34.385Z,7.10
2022-10-14T02:52:02.440Z,8.17
2022-10-14T02:54:30.819Z,8.13
2022-10-14T02:56:58.909Z,8.07
2022-10-14T02:59:27.080Z,7.87
2022-10-14T03:01:55.220Z,7.97
2022-10-14T03:04:24.954Z,7.40
2022-10-14T03:06:54.096Z,7.10
2022-10-14T03:09:22.133Z,7.10
2022-10-14T03:11:50.204Z,7.37
2022-10-14T03:14:18.321Z,7.23
2022-10-14T03:16:46.397Z,7.23
2022-10-14T03:19:14.660Z,6.97
2022-10-14T03:21:44.138Z,6.83
2022-10-14T03:24:12.320Z,7.43
2022-10-14T03:26:40.365Z,7.27
2022-10-14T03:29:08.424Z,7.37
2022-10-14T03:31:36.523Z,7.77
2022-10-14T03:34:04.769Z,7.00
2022-10-14T03:36:32.864Z,6.87
2022-10-14T03:39:02.325Z,7.27
2022-10-14T03:41:30.445Z,7.73
2022-10-14T03:43:58.504Z,7.20
2022-10-14T03:46:26.575Z,7.57
2022-10-14T03:48:54.893Z,8.57
2022-10-14T03:51:22.981Z,8.27
2022-10-14T03:53:51.095Z,7.63
2022-10-14T03:56:20.614Z,8.20
2022-10-14T03:58:48.727Z,7.50
2022-10-14T04:01:16.826Z,8.10
2022-10-14T04:03:46.526Z,7.23
2022-10-14T04:06:15.324Z,6.43
2022-10-14T04:08:43.748Z,6.87
2022-10-14T04:11:12.029Z,6.93
2022-10-14T04:13:41.541Z,6.53
2022-10-14T04:16:11.411Z,6.83
2022-10-14T04:18:39.696Z,7.43
2022-10-14T04:21:09.989Z,6.77
2022-10-14T04:23:38.525Z,7.37
2022-10-14T04:26:08.124Z,7.37
2022-10-14T04:28:37.185Z,8.00
2022-10-14T04:31:07.086Z,7.60
2022-10-14T04:33:35.565Z,7.40
2022-10-14T04:36:06.105Z,7.30
2022-10-14T04:38:34.576Z,7.13
2022-10-14T04:41:02.636Z,7.17
2022-10-14T04:43:30.726Z,7.47
2022-10-14T04:45:58.996Z,7.00
2022-10-14T04:48:28.592Z,7.80
2022-10-14T04:50:56.737Z,6.83
2022-10-14T04:53:24.858Z,8.43
2022-10-14T04:55:53.001Z,106.13
2022-10-14T04:58:21.073Z,21.50
2022-10-14T05:00:49.220Z,9.43
2022-10-14T05:03:17.295Z,8.27
2022-10-14T05:05:46.728Z,7.77
2022-10-14T05:08:14.812Z,8.10
2022-10-14T05:10:42.912Z,7.30
2022-10-14T05:13:11.135Z,8.33
2022-10-14T05:15:39.231Z,8.83
2022-10-14T05:18:07.366Z,8.97
2022-10-14T05:20:36.127Z,8.93
2022-10-14T05:23:05.791Z,8.50
2022-10-14T05:25:33.911Z,7.90
2022-10-14T05:28:01.984Z,7.90
2022-10-14T05:30:34.515Z,7.07
2022-10-14T05:33:03.030Z,7.10
2022-10-14T05:35:56.975Z,6.37
2022-10-14T05:38:20.544Z,6.87
2022-10-14T05:40:53.640Z,7.57
2022-10-14T05:43:21.811Z,7.17
2022-10-14T05:45:49.900Z,6.90
2022-10-14T05:48:18.016Z,7.80
2022-10-14T05:50:46.192Z,6.67
2022-10-14T05:53:14.460Z,7.53
2022-10-14T05:55:43.927Z,6.80
2022-10-14T05:58:12.039Z,6.67
2022-10-14T06:00:40.138Z,6.10
2022-10-14T06:03:08.878Z,6.87
2022-10-14T06:05:38.413Z,6.53
2022-10-14T06:08:07.122Z,6.90
2022-10-14T06:10:36.250Z,6.77
2022-10-14T06:13:05.697Z,6.90
2022-10-14T06:15:35.533Z,6.57
2022-10-14T06:18:03.609Z,6.23
2022-10-14T06:20:31.731Z,6.70
2022-10-14T06:23:00.312Z,7.13
2022-10-14T06:25:29.352Z,7.43
2022-10-14T06:28:02.548Z,6.80
2022-10-14T06:30:32.273Z,6.80
2022-10-14T06:33:00.351Z,7.30
2022-10-14T06:35:29.156Z,7.07
2022-10-14T06:37:57.237Z,7.40
2022-10-14T06:40:25.506Z,6.80
2022-10-14T06:42:54.103Z,7.70
2022-10-14T06:45:22.164Z,7.70
2022-10-14T06:47:51.619Z,7.10
2022-10-14T06:50:19.716Z,7.33
2022-10-14T06:52:48.116Z,7.43
2022-10-14T06:55:16.977Z,7.33
2022-10-14T06:57:45.261Z,7.57
2022-10-14T07:00:14.068Z,7.80
2022-10-14T07:02:42.718Z,8.07
2022-10-14T07:05:12.578Z,7.50
2022-10-14T07:07:40.780Z,6.67
2022-10-14T07:10:09.569Z,5.80
2022-10-14T07:12:37.682Z,5.00
2022-10-14T07:15:06.183Z,5.10
2022-10-14T07:17:34.267Z,5.23
2022-10-14T07:20:02.399Z,4.73
2022-10-14T07:22:36.261Z,4.33
2022-10-14T07:25:07.473Z,4.03
2022-10-14T07:27:35.555Z,4.23
2022-10-14T07:30:03.679Z,4.43
2022-10-14T07:32:31.875Z,4.20
2022-10-14T07:34:59.952Z,4.13
2022-10-14T07:37:28.060Z,4.17
2022-10-14T07:39:57.541Z,4.10
2022-10-14T07:42:25.768Z,3.77
2022-10-14T07:44:54.394Z,4.13
2022-10-14T07:47:23.477Z,4.63
2022-10-14T07:49:51.904Z,6.73
2022-10-14T07:52:20.183Z,8.47
2022-10-14T07:54:48.262Z,11.87
2022-10-14T07:57:17.813Z,11.70
2022-10-14T07:59:46.744Z,12.47
2022-10-14T08:02:14.834Z,15.10
2022-10-14T08:04:42.876Z,15.10
2022-10-14T08:07:11.173Z,17.67
2022-10-14T08:09:39.227Z,17.00
2022-10-14T08:12:07.797Z,24.93
2022-10-14T08:14:37.358Z,26.20
2022-10-14T08:17:05.461Z,28.77
2022-10-14T08:19:33.753Z,28.37
2022-10-14T08:22:01.845Z,26.37
2022-10-14T08:24:29.949Z,26.37
2022-10-14T08:27:00.813Z,28.40
2022-10-14T08:29:28.949Z,31.00
2022-10-14T08:31:58.450Z,29.93
2022-10-14T08:34:26.666Z,27.80
2022-10-14T08:36:54.819Z,29.23
2022-10-14T08:39:23.411Z,27.43
2022-10-14T08:42:12.590Z,27.30
2022-10-14T08:44:48.638Z,26.33
2022-10-14T08:47:23.717Z,27.43
2022-10-14T08:49:59.689Z,25.73
2022-10-14T08:52:35.063Z,26.63
2022-10-14T08:55:15.899Z,26.33
2022-10-14T08:57:52.324Z,25.57
2022-10-14T09:00:21.623Z,25.77
2022-10-14T09:02:52.684Z,26.67
2022-10-14T09:05:23.371Z,26.70
2022-10-14T09:07:54.684Z,27.83
2022-10-14T09:10:30.991Z,26.53
2022-10-14T09:13:08.534Z,26.07
2022-10-14T09:15:41.212Z,24.17
2022-10-14T09:18:23.302Z,23.03
2022-10-14T09:20:52.442Z,22.97
2022-10-14T09:23:22.781Z,22.13
2022-10-14T09:25:57.176Z,21.93
2022-10-14T09:28:36.304Z,22.27
2022-10-14T09:31:05.594Z,20.67
2022-10-14T09:33:42.134Z,20.57
2022-10-14T09:36:16.754Z,20.57
2022-10-14T09:38:46.041Z,21.20
2022-10-14T09:41:17.048Z,19.80
2022-10-14T09:44:18.369Z,20.67
2022-10-14T09:46:53.633Z,20.50
2022-10-14T09:49:35.947Z,18.47
2022-10-14T09:52:04.033Z,17.53
2022-10-14T09:54:33.485Z,19.03
2022-10-14T09:57:05.842Z,17.07
2022-10-14T09:59:34.396Z,16.63
2022-10-14T10:02:05.421Z,16.13
2022-10-14T10:04:37.553Z,17.00
2022-10-14T10:07:08.818Z,15.73
2022-10-14T10:09:36.950Z,15.50
2022-10-14T10:12:24.400Z,16.43
2022-10-14T10:14:58.461Z,16.77
2022-10-14T10:17:27.770Z,15.60
2022-10-14T10:20:18.693Z,17.67
2022-10-14T10:22:47.439Z,18.83
2022-10-14T10:25:29.671Z,17.83
2022-10-14T10:28:00.593Z,17.73
2022-10-14T10:30:32.254Z,16.90
2022-10-14T10:33:14.167Z,18.73
2022-10-14T10:36:07.876Z,19.53
2022-10-14T10:38:40.698Z,18.80
2022-10-14T10:41:23.645Z,19.60
2022-10-14T10:44:17.274Z,19.83
2022-10-14T10:47:02.545Z,19.60
2022-10-14T10:49:50.202Z,19.10
2022-10-14T10:52:28.814Z,20.30
2022-10-14T10:55:02.175Z,18.87
2022-10-14T10:57:46.028Z,18.67
2022-10-14T11:00:20.910Z,19.00
2022-10-14T11:03:00.402Z,20.10
2022-10-14T11:05:46.014Z,20.00
2022-10-14T11:08:46.055Z,19.57
2022-10-14T11:11:40.204Z,19.90
2022-10-14T11:14:20.971Z,20.27
2022-10-14T11:16:56.741Z,21.53
2022-10-14T11:19:35.341Z,19.47
2022-10-14T11:22:11.737Z,19.83
2022-10-14T11:24:47.031Z,19.23
2022-10-14T11:27:25.071Z,17.83
2022-10-14T11:30:13.756Z,18.23
2022-10-14T11:32:55.769Z,19.17
2022-10-14T11:38:21.917Z,20.07
2022-10-14T11:41:01.996Z,20.07
2022-10-14T11:43:42.573Z,21.00
2022-10-14T11:46:13.710Z,19.90
2022-10-14T11:48:49.092Z,20.83
2022-10-14T11:51:24.052Z,18.97
2022-10-14T11:54:03.845Z,20.20
2022-10-14T11:56:45.757Z,19.37
2022-10-14T11:59:22.310Z,16.67
2022-10-14T12:01:55.173Z,17.67
2022-10-14T12:04:29.450Z,17.33
2022-10-14T12:07:05.178Z,17.43
2022-10-14T12:09:39.454Z,18.60
2022-10-14T12:12:11.209Z,17.90
2022-10-14T12:14:43.703Z,18.10
2022-10-14T12:17:20.388Z,18.43
2022-10-14T12:19:49.090Z,18.00
2022-10-14T12:22:21.595Z,18.77
2022-10-14T12:24:53.144Z,17.40
2022-10-14T12:27:24.894Z,17.63
2022-10-14T12:29:55.668Z,16.87
2022-10-14T12:32:26.004Z,18.17
2022-10-14T12:34:55.237Z,18.63
2022-10-14T12:37:51.406Z,18.60
2022-10-14T12:40:30.229Z,16.90
2022-10-14T12:43:15.017Z,18.73
2022-10-14T12:45:51.991Z,16.93
2022-10-14T12:48:23.747Z,17.07
2022-10-14T12:51:08.021Z,16.87
2022-10-14T12:53:36.639Z,15.80
2022-10-14T12:56:07.585Z,17.77
2022-10-14T12:58:40.276Z,16.57
2022-10-14T13:01:17.764Z,15.53
2022-10-14T13:03:53.692Z,15.37
2022-10-14T13:06:43.358Z,15.77
2022-10-14T13:09:36.027Z,15.93
2022-10-14T13:12:43.886Z,15.73
2022-10-14T13:16:00.743Z,14.77
2022-10-14T13:18:51.485Z,17.03
2022-10-14T13:21:31.174Z,16.03
2022-10-14T13:24:02.032Z,25.80
2022-10-14T13:26:39.215Z,25.37
2022-10-14T13:29:17.578Z,29.43
2022-10-14T13:31:55.920Z,17.87
2022-10-14T13:34:48.660Z,17.40
2022-10-14T13:37:35.510Z,15.97
2022-10-14T13:40:24.159Z,16.37
2022-10-14T13:42:55.039Z,16.00
2022-10-14T13:45:29.655Z,14.90
2022-10-14T13:47:57.800Z,14.97
2022-10-14T13:50:33.098Z,13.70
2022-10-14T13:53:05.033Z,14.23
2022-10-14T13:55:33.364Z,14.63
2022-10-14T13:58:13.575Z,16.50
2022-10-14T14:00:46.283Z,15.67
2022-10-14T14:03:22.781Z,16.17
2022-10-14T14:05:53.567Z,16.57
2022-10-14T14:08:42.256Z,14.63
2022-10-14T14:11:18.411Z,17.50
2022-10-14T14:14:01.366Z,16.47
2022-10-14T14:16:34.923Z,17.47
2022-10-14T14:19:08.429Z,17.07
2022-10-14T14:21:39.221Z,16.27
2022-10-14T14:24:20.437Z,16.33
2022-10-14T14:26:48.700Z,16.43
2022-10-14T14:29:18.774Z,16.10
2022-10-14T14:32:05.420Z,16.87
2022-10-14T14:34:36.946Z,17.63
2022-10-14T14:40:00.227Z,17.40
2022-10-14T14:42:31.897Z,17.77
2022-10-14T14:45:05.258Z,18.97
2022-10-14T14:47:34.357Z,16.87
2022-10-14T14:50:29.927Z,16.37
2022-10-14T14:52:53.537Z,17.10
2022-10-14T14:55:46.675Z,16.87
2022-10-14T14:58:24.235Z,17.73
2022-10-14T15:00:54.767Z,18.03
2022-10-14T15:03:24.228Z,18.77
2022-10-14T15:05:54.144Z,18.07
2022-10-14T15:08:26.422Z,20.60
2022-10-14T15:10:56.639Z,20.97
2022-10-14T15:13:31.598Z,18.97
2022-10-14T15:16:00.545Z,18.20
2022-10-14T15:18:30.388Z,20.13
2022-10-14T15:21:15.877Z,20.33
2022-10-14T15:24:03.182Z,19.67
2022-10-14T15:26:34.640Z,44.07
2022-10-14T15:32:12.528Z,21.87
2022-10-14T15:34:40.718Z,20.23
2022-10-14T15:37:13.991Z,21.20
2022-10-14T15:39:43.480Z,20.77
2022-10-14T15:42:13.231Z,20.90
2022-10-14T15:44:41.298Z,22.63
2022-10-14T15:47:22.484Z,20.50
2022-10-14T15:49:50.806Z,21.70
2022-10-14T15:52:20.565Z,21.93
2022-10-14T15:54:53.802Z,25.17
2022-10-14T15:57:22.521Z,25.03
2022-10-14T15:59:52.687Z,22.27
2022-10-14T16:02:23.805Z,19.80
2022-10-14T16:07:41.507Z,19.43
2022-10-14T16:10:14.701Z,19.53
2022-10-14T16:12:43.046Z,19.87
2022-10-14T16:15:22.945Z,18.80
2022-10-14T16:17:52.995Z,18.97
2022-10-14T16:20:21.600Z,18.63
2022-10-14T16:22:49.891Z,18.60
2022-10-14T16:25:24.633Z,18.07
2022-10-14T16:27:52.735Z,19.37
2022-10-14T16:30:20.853Z,20.87
2022-10-14T16:32:50.249Z,19.83
2022-10-14T16:35:18.512Z,19.17
2022-10-14T16:37:46.603Z,18.10
2022-10-14T16:40:14.711Z,19.67
2022-10-14T16:42:44.174Z,17.03
2022-10-14T16:45:13.424Z,18.77
2022-10-14T16:47:41.958Z,18.37
2022-10-14T16:50:11.424Z,17.33
2022-10-14T16:52:58.796Z,17.77
2022-10-14T16:55:28.897Z,17.50
2022-10-14T16:57:58.481Z,19.03
2022-10-14T17:00:26.569Z,19.07
2022-10-14T17:02:55.238Z,17.90
2022-10-14T17:05:23.379Z,18.87
2022-10-14T17:07:51.440Z,45.37
2022-10-14T17:10:21.340Z,70.93
2022-10-14T17:12:49.746Z,39.77
2022-10-14T17:15:19.346Z,29.17
2022-10-14T17:17:47.523Z,23.60
2022-10-14T17:20:15.735Z,21.37
2022-10-14T17:22:44.044Z,21.77
2022-10-14T17:25:12.198Z,18.77
2022-10-14T17:27:40.281Z,18.30
2022-10-14T17:30:09.871Z,18.00
2022-10-14T17:32:39.288Z,17.83
2022-10-14T17:35:11.357Z,17.80
2022-10-14T17:37:42.603Z,18.27
2022-10-14T17:40:11.795Z,17.40
2022-10-14T17:42:39.864Z,18.97
2022-10-14T17:45:09.362Z,18.90
2022-10-14T17:47:38.852Z,18.80
2022-10-14T17:50:08.944Z,18.63
2022-10-14T17:52:37.027Z,18.63
2022-10-14T17:55:05.608Z,19.73
2022-10-14T17:57:33.685Z,20.10
2022-10-14T18:00:01.767Z,21.33
2022-10-14T18:02:29.900Z,19.97
2022-10-14T18:04:59.355Z,20.37
2022-10-14T18:07:27.480Z,33.23
2022-10-14T18:09:55.834Z,30.77
2022-10-14T18:12:24.164Z,21.10
2022-10-14T18:14:52.244Z,20.00
2022-10-14T18:17:20.511Z,20.97
2022-10-14T18:19:52.169Z,19.93
2022-10-14T18:22:21.911Z,20.60
2022-10-14T18:24:50.030Z,20.33
2022-10-14T18:27:18.780Z,19.67
2022-10-14T18:29:46.892Z,37.93
2022-10-14T18:32:14.953Z,21.87
2022-10-14T18:34:43.013Z,20.87
2022-10-14T18:37:11.094Z,20.10
2022-10-14T18:39:40.582Z,19.70
2022-10-14T18:42:08.740Z,31.67
2022-10-14T18:44:36.879Z,28.90
2022-10-14T18:47:05.106Z,24.30
2022-10-14T18:49:38.135Z,20.07
2022-10-14T18:52:09.351Z,18.63
2022-10-14T18:54:37.430Z,17.83
2022-10-14T18:57:06.952Z,16.97
2022-10-14T18:59:35.777Z,17.87
2022-10-14T19:02:03.850Z,17.37
2022-10-14T19:04:31.965Z,17.53
2022-10-14T19:07:00.073Z,17.00
2022-10-14T19:09:29.982Z,17.20
2022-10-14T19:11:59.573Z,17.73
2022-10-14T19:14:31.772Z,18.17
2022-10-14T19:16:59.877Z,17.23
2022-10-14T19:19:27.981Z,17.10
2022-10-14T19:21:59.733Z,17.27
2022-10-14T19:24:28.078Z,16.63
2022-10-14T19:26:57.032Z,16.53
2022-10-14T19:29:25.149Z,16.90
2022-10-14T19:31:54.613Z,17.33
2022-10-14T19:34:26.666Z,16.20
2022-10-14T19:36:55.140Z,14.53
2022-10-14T19:39:23.224Z,15.50
2022-10-14T19:41:51.288Z,15.50
2022-10-14T19:44:19.359Z,15.97
2022-10-14T19:46:47.497Z,15.97
2022-10-14T19:49:17.472Z,15.60
2022-10-14T19:51:45.636Z,16.37
2022-10-14T19:54:14.381Z,15.10
2022-10-14T19:56:42.811Z,15.33
2022-10-14T19:59:13.372Z,16.23
2022-10-14T20:01:41.606Z,16.40
2022-10-14T20:04:09.788Z,15.50
2022-10-14T20:06:40.206Z,14.43
2022-10-14T20:09:08.906Z,16.13
2022-10-14T20:11:37.105Z,13.93
2022-10-14T20:14:05.253Z,14.53
2022-10-14T20:16:33.441Z,13.93
2022-10-14T20:19:01.787Z,14.50
2022-10-14T20:21:30.996Z,13.87
2022-10-14T20:24:00.765Z,13.77
2022-10-14T20:26:29.092Z,13.77
2022-10-14T20:28:57.228Z,15.00
2022-10-14T20:31:26.385Z,13.57
2022-10-14T20:33:56.760Z,13.67
2022-10-14T20:36:24.992Z,14.30
2022-10-14T20:38:53.115Z,18.13
2022-10-14T20:41:24.442Z,14.73
2022-10-14T20:43:53.758Z,16.33
2022-10-14T20:46:23.270Z,14.73
2022-10-14T20:48:55.043Z,14.37
2022-10-14T20:51:23.768Z,13.80
2022-10-14T20:53:58.528Z,14.27
2022-10-14T20:56:34.692Z,13.57
2022-10-14T20:59:04.907Z,13.50
2022-10-14T21:01:35.809Z,12.60
2022-10-14T21:04:05.584Z,13.37
2022-10-14T21:06:34.032Z,13.40
2022-10-14T21:09:02.138Z,12.97
2022-10-14T21:11:31.682Z,12.90
2022-10-14T21:14:01.151Z,12.57
2022-10-14T21:16:30.834Z,13.07
2022-10-14T21:19:01.790Z,14.00
2022-10-14T21:21:32.144Z,12.33
2022-10-14T21:24:00.683Z,11.67
2022-10-14T21:26:31.625Z,12.83
2022-10-14T21:29:01.880Z,12.33
2022-10-14T21:31:30.178Z,12.77
2022-10-14T21:34:04.415Z,12.53
2022-10-14T21:36:34.148Z,15.70
2022-10-14T21:39:05.503Z,12.20
2022-10-14T21:41:35.803Z,13.87
2022-10-14T21:44:04.074Z,14.33
2022-10-14T21:46:32.729Z,13.30
2022-10-14T21:49:01.074Z,12.03
2022-10-14T21:51:30.664Z,13.87
2022-10-14T21:53:59.569Z,13.13
2022-10-14T21:56:28.273Z,12.97
2022-10-14T21:58:57.840Z,13.07
2022-10-14T22:01:28.099Z,14.07
2022-10-14T22:03:57.952Z,12.67
2022-10-14T22:06:27.103Z,13.03
2022-10-14T22:08:57.584Z,12.87
2022-10-14T22:11:27.893Z,13.40
2022-10-14T22:13:58.947Z,13.03
2022-10-14T22:16:29.151Z,12.87
2022-10-14T22:19:00.372Z,12.77
2022-10-14T22:21:30.739Z,13.87
2022-10-14T22:23:59.191Z,13.47
2022-10-14T22:26:29.002Z,13.20
2022-10-14T22:29:03.410Z,12.33
2022-10-14T22:31:33.123Z,11.83
2022-10-14T22:34:02.013Z,12.33
2022-10-14T22:36:30.821Z,12.73
2022-10-14T22:39:00.450Z,12.83
2022-10-14T22:41:34.853Z,13.57
2022-10-14T22:44:06.036Z,12.60
2022-10-14T22:46:36.978Z,12.57
2022-10-14T22:49:05.767Z,13.43
2022-10-14T22:51:35.489Z,12.57
2022-10-14T22:54:03.945Z,13.73
2022-10-14T22:56:32.971Z,13.93
2022-10-14T22:59:03.109Z,13.20
2022-10-14T23:01:32.812Z,13.10
2022-10-14T23:04:01.424Z,12.53
2022-10-14T23:06:30.781Z,12.30
2022-10-14T23:09:00.373Z,12.10
2022-10-14T23:11:30.034Z,12.00
2022-10-14T23:14:00.292Z,12.23
2022-10-14T23:16:32.579Z,12.10
2022-10-14T23:19:00.762Z,10.80
2022-10-14T23:21:30.696Z,12.03
2022-10-14T23:24:01.664Z,11.63
2022-10-14T23:26:33.195Z,10.77
2022-10-14T23:29:02.774Z,11.73
2022-10-14T23:31:34.414Z,11.13
2022-10-14T23:34:05.311Z,11.63
2022-10-14T23:36:34.050Z,12.03
2022-10-14T23:39:02.139Z,12.03
2022-10-14T23:41:30.260Z,12.77
2022-10-14T23:43:58.368Z,11.23
2022-10-14T23:46:26.454Z,12.10
2022-10-14T23:49:06.700Z,11.77
2022-10-14T23:51:42.353Z,11.23
2022-10-14T23:54:10.463Z,11.70
2022-10-14T23:56:38.548Z,11.80
2022-10-14T23:59:06.620Z,10.73
